createdAt,value
2017-04-18T00:00:49.880Z,1020.17
2017-04-18T00:02:12.270Z,1020.21
2017-04-18T00:03:33.779Z,1020.18
2017-04-18T00:04:55.951Z,1020.2
2017-04-18T00:06:17.788Z,1020.25
2017-04-18T00:07:39.888Z,1020.21
2017-04-18T00:09:01.449Z,1020.23
2017-04-18T00:10:23.644Z,1020.18
2017-04-18T00:11:45.601Z,1020.24
2017-04-18T00:13:08.419Z,1020.22
2017-04-18T00:14:29.603Z,1020.26
2017-04-18T00:15:52.107Z,1020.25
2017-04-18T00:17:13.921Z,1020.31
2017-04-18T00:18:36.084Z,1020.28
2017-04-18T00:19:58.540Z,1020.24
2017-04-18T00:21:21.021Z,1020.24
2017-04-18T00:22:43.138Z,1020.23
2017-04-18T00:24:05.929Z,1020.24
2017-04-18T00:25:27.750Z,1020.22
2017-04-18T00:26:49.900Z,1020.22
2017-04-18T00:28:12.051Z,1020.16
2017-04-18T00:29:35.031Z,1020.19
2017-04-18T00:30:56.512Z,1020.23
2017-04-18T00:32:18.953Z,1020.28
2017-04-18T00:33:41.174Z,1020.21
2017-04-18T00:35:03.351Z,1020.24
2017-04-18T00:36:25.184Z,1020.19
2017-04-18T00:37:47.509Z,1020.16
2017-04-18T00:39:09.759Z,1020.16
2017-04-18T00:40:32.602Z,1020.16
2017-04-18T00:41:55.164Z,1020.14
2017-04-18T00:43:16.990Z,1020.09
2017-04-18T00:44:38.808Z,1020.11
2017-04-18T00:46:00.720Z,1020.12
2017-04-18T00:47:23.167Z,1020.08
2017-04-18T00:48:45.733Z,1020.11
2017-04-18T00:50:08.166Z,1020.16
2017-04-18T00:51:30.609Z,1020.14
2017-04-18T00:52:52.802Z,1020.16
2017-04-18T00:54:14.941Z,1020.17
2017-04-18T00:55:37.019Z,1020.2
2017-04-18T00:56:58.459Z,1020.22
2017-04-18T00:58:20.616Z,1020.22
2017-04-18T00:59:42.121Z,1020.21
2017-04-18T01:01:04.558Z,1020.3
2017-04-18T01:02:26.322Z,1020.36
2017-04-18T01:03:48.218Z,1020.35
2017-04-18T01:05:10.363Z,1020.4
2017-04-18T01:06:32.221Z,1020.36
2017-04-18T01:07:55.201Z,1020.39
2017-04-18T01:09:16.803Z,1020.37
2017-04-18T01:10:38.936Z,1020.36
2017-04-18T01:12:00.121Z,1020.37
2017-04-18T01:13:22.514Z,1020.37
2017-04-18T01:14:44.336Z,1020.38
2017-04-18T01:16:06.170Z,1020.33
2017-04-18T01:17:27.676Z,1020.43
2017-04-18T01:18:50.373Z,1020.46
2017-04-18T01:20:12.841Z,1020.51
2017-04-18T01:21:34.994Z,1020.47
2017-04-18T01:22:57.330Z,1020.53
2017-04-18T01:24:19.466Z,1020.51
2017-04-18T01:25:41.613Z,1020.55
2017-04-18T01:27:03.120Z,1020.54
2017-04-18T01:28:24.605Z,1020.53
2017-04-18T01:29:47.480Z,1020.59
2017-04-18T01:31:09.140Z,1020.6
2017-04-18T01:32:31.270Z,1020.59
2017-04-18T01:33:53.429Z,1020.58
2017-04-18T01:35:16.149Z,1020.57
2017-04-18T01:36:37.669Z,1020.57
2017-04-18T01:38:00.270Z,1020.57
2017-04-18T01:39:22.200Z,1020.6
2017-04-18T01:40:44.642Z,1020.65
2017-04-18T01:42:06.549Z,1020.67
2017-04-18T01:43:28.135Z,1020.68
2017-04-18T01:44:49.651Z,1020.7
2017-04-18T01:46:11.424Z,1020.68
2017-04-18T01:47:32.942Z,1020.72
2017-04-18T01:48:54.482Z,1020.77
2017-04-18T01:50:16.669Z,1020.76
2017-04-18T01:51:39.060Z,1020.78
2017-04-18T01:53:00.932Z,1020.76
2017-04-18T01:54:23.384Z,1020.8
2017-04-18T01:55:45.352Z,1020.79
2017-04-18T01:57:08.100Z,1020.86
2017-04-18T01:58:29.953Z,1020.82
2017-04-18T01:59:52.418Z,1020.84
2017-04-18T02:01:14.545Z,1020.86
2017-04-18T02:02:37.011Z,1020.85
2017-04-18T02:03:59.150Z,1020.89
2017-04-18T02:05:20.650Z,1020.86
2017-04-18T02:06:42.492Z,1020.91
2017-04-18T02:08:04.620Z,1020.9
2017-04-18T02:09:26.449Z,1020.91
2017-04-18T02:10:47.998Z,1020.91
2017-04-18T02:12:10.241Z,1020.87
2017-04-18T02:13:32.660Z,1020.9
2017-04-18T02:14:54.164Z,1020.91
2017-04-18T02:16:16.308Z,1020.91
2017-04-18T02:17:38.210Z,1020.93
2017-04-18T02:19:00.279Z,1020.93
2017-04-18T02:20:22.129Z,1020.98
2017-04-18T02:21:44.108Z,1020.97
2017-04-18T02:23:06.287Z,1020.94
2017-04-18T02:24:28.525Z,1021.04
2017-04-18T02:25:49.698Z,1021.03
2017-04-18T02:27:11.507Z,1021.04
2017-04-18T02:28:33.712Z,1021.03
2017-04-18T02:29:56.377Z,1021.08
2017-04-18T02:31:18.519Z,1021.11
2017-04-18T02:32:40.974Z,1021.11
2017-04-18T02:34:02.480Z,1021.12
2017-04-18T02:35:24.966Z,1021.17
2017-04-18T02:36:46.931Z,1021.15
2017-04-18T02:38:09.060Z,1021.13
2017-04-18T02:39:31.198Z,1021.19
2017-04-18T02:40:53.280Z,1021.11
2017-04-18T02:42:15.468Z,1021.13
2017-04-18T02:43:37.440Z,1021.15
2017-04-18T02:44:59.879Z,1021.16
2017-04-18T02:46:21.799Z,1021.17
2017-04-18T02:47:44.369Z,1021.2
2017-04-18T02:49:06.508Z,1021.16
2017-04-18T02:50:28.328Z,1021.26
2017-04-18T02:51:50.558Z,1021.24
2017-04-18T02:53:12.371Z,1021.25
2017-04-18T02:54:34.581Z,1021.27
2017-04-18T02:55:57.033Z,1021.28
2017-04-18T02:57:19.281Z,1021.27
2017-04-18T02:58:41.459Z,1021.29
2017-04-18T03:00:03.928Z,1021.33
2017-04-18T03:01:25.818Z,1021.32
2017-04-18T03:02:48.420Z,1021.31
2017-04-18T03:04:10.053Z,1021.33
2017-04-18T03:05:31.887Z,1021.36
2017-04-18T03:06:53.785Z,1021.34
2017-04-18T03:08:16.016Z,1021.37
2017-04-18T03:09:37.855Z,1021.38
2017-04-18T03:10:59.818Z,1021.43
2017-04-18T03:12:21.785Z,1021.48
2017-04-18T03:13:43.918Z,1021.46
2017-04-18T03:15:06.048Z,1021.47
2017-04-18T03:16:28.314Z,1021.44
2017-04-18T03:17:49.852Z,1021.47
2017-04-18T03:19:11.301Z,1021.44
2017-04-18T03:20:33.129Z,1021.48
2017-04-18T03:21:54.910Z,1021.44
2017-04-18T03:23:17.409Z,1021.46
2017-04-18T03:24:39.800Z,1021.5
2017-04-18T03:26:02.249Z,1021.56
2017-04-18T03:27:24.511Z,1021.64
2017-04-18T03:28:46.839Z,1021.61
2017-04-18T03:30:09.563Z,1021.64
2017-04-18T03:31:31.688Z,1021.63
2017-04-18T03:32:53.192Z,1021.69
2017-04-18T03:34:15.049Z,1021.69
2017-04-18T03:35:37.747Z,1021.73
2017-04-18T03:36:59.359Z,1021.75
2017-04-18T03:38:21.508Z,1021.8
2017-04-18T03:39:43.957Z,1021.8
2017-04-18T03:41:05.770Z,1021.78
2017-04-18T03:42:27.910Z,1021.77
2017-04-18T03:43:49.868Z,1021.81
2017-04-18T03:45:12.274Z,1021.78
2017-04-18T03:46:33.394Z,1021.8
2017-04-18T03:47:54.586Z,1021.81
2017-04-18T03:49:16.487Z,1021.81
2017-04-18T03:50:38.942Z,1021.82
2017-04-18T03:52:01.538Z,1021.85
2017-04-18T03:53:23.365Z,1021.87
2017-04-18T03:54:45.173Z,1021.89
2017-04-18T03:56:07.409Z,1021.94
2017-04-18T03:57:29.787Z,1021.97
2017-04-18T03:58:50.979Z,1021.98
2017-04-18T04:00:12.799Z,1022
2017-04-18T04:01:35.042Z,1021.98
2017-04-18T04:02:57.208Z,1022.02
2017-04-18T04:04:19.101Z,1022.03
2017-04-18T04:05:41.239Z,1022
2017-04-18T04:07:03.378Z,1022.06
2017-04-18T04:08:25.458Z,1022.09
2017-04-18T04:09:46.644Z,1022.09
2017-04-18T04:11:08.817Z,1022.14
2017-04-18T04:12:29.989Z,1022.11
2017-04-18T04:13:52.438Z,1022.18
2017-04-18T04:15:13.725Z,1022.18
2017-04-18T04:16:34.919Z,1022.18
2017-04-18T04:17:57.087Z,1022.22
2017-04-18T04:19:18.888Z,1022.22
2017-04-18T04:20:40.402Z,1022.24
2017-04-18T04:22:02.021Z,1022.25
2017-04-18T04:23:23.913Z,1022.26
2017-04-18T04:24:46.182Z,1022.28
2017-04-18T04:26:08.313Z,1022.26
2017-04-18T04:27:30.141Z,1022.25
2017-04-18T04:28:51.359Z,1022.29
2017-04-18T04:30:13.876Z,1022.32
2017-04-18T04:31:36.021Z,1022.31
2017-04-18T04:32:57.849Z,1022.37
2017-04-18T04:34:19.675Z,1022.38
2017-04-18T04:35:41.551Z,1022.39
2017-04-18T04:37:03.708Z,1022.43
2017-04-18T04:38:25.655Z,1022.44
2017-04-18T04:39:47.480Z,1022.48
2017-04-18T04:41:09.289Z,1022.56
2017-04-18T04:42:30.819Z,1022.57
2017-04-18T04:43:52.326Z,1022.58
2017-04-18T04:45:14.146Z,1022.64
2017-04-18T04:46:36.687Z,1022.61
2017-04-18T04:47:58.500Z,1022.65
2017-04-18T04:49:20.648Z,1022.62
2017-04-18T04:50:42.810Z,1022.67
2017-04-18T04:52:05.208Z,1022.66
2017-04-18T04:53:26.841Z,1022.72
2017-04-18T04:54:49.356Z,1022.71
2017-04-18T04:56:11.498Z,1022.71
2017-04-18T04:57:34.123Z,1022.69
2017-04-18T04:58:55.971Z,1022.72
2017-04-18T05:00:17.460Z,1022.7
2017-04-18T05:01:38.986Z,1022.78
2017-04-18T05:03:01.208Z,1022.87
2017-04-18T05:04:23.352Z,1022.95
2017-04-18T05:05:45.474Z,1022.97
2017-04-18T05:07:07.626Z,1023.01
2017-04-18T05:08:30.149Z,1023.07
2017-04-18T05:09:51.662Z,1023.06
2017-04-18T05:11:13.791Z,1023.07
2017-04-18T05:12:35.281Z,1023.07
2017-04-18T05:13:58.022Z,1023.06
2017-04-18T05:15:19.244Z,1023.07
2017-04-18T05:16:41.169Z,1023.13
2017-04-18T05:18:02.657Z,1023.14
2017-04-18T05:19:25.363Z,1023.16
2017-04-18T05:20:47.518Z,1023.15
2017-04-18T05:22:09.074Z,1023.16
2017-04-18T05:23:31.220Z,1023.22
2017-04-18T05:24:53.985Z,1023.25
2017-04-18T05:26:15.513Z,1023.23
2017-04-18T05:27:38.277Z,1023.29
2017-04-18T05:29:00.224Z,1023.29
2017-04-18T05:30:22.299Z,1023.32
2017-04-18T05:31:44.116Z,1023.37
2017-04-18T05:33:06.253Z,1023.43
2017-04-18T05:34:28.217Z,1023.47
2017-04-18T05:35:50.136Z,1023.52
2017-04-18T05:37:12.089Z,1023.48
2017-04-18T05:38:34.249Z,1023.48
2017-04-18T05:39:56.076Z,1023.48
2017-04-18T05:41:18.175Z,1023.57
2017-04-18T05:42:40.618Z,1023.59
2017-04-18T05:44:02.451Z,1023.63
2017-04-18T05:45:23.952Z,1023.66
2017-04-18T05:46:46.168Z,1023.66
2017-04-18T05:48:07.985Z,1023.66
2017-04-18T05:49:30.181Z,1023.6
2017-04-18T05:50:51.690Z,1023.64
2017-04-18T05:52:14.164Z,1023.7
2017-04-18T05:53:35.709Z,1023.72
2017-04-18T05:54:57.230Z,1023.72
2017-04-18T05:56:18.748Z,1023.7
2017-04-18T05:57:41.129Z,1023.72
2017-04-18T05:59:02.668Z,1023.73
2017-04-18T06:00:24.572Z,1023.75
2017-04-18T06:01:46.139Z,1023.83
2017-04-18T06:03:08.572Z,1023.79
2017-04-18T06:04:30.749Z,1023.9
2017-04-18T06:05:52.891Z,1023.88
2017-04-18T06:07:15.357Z,1023.89
2017-04-18T06:08:37.747Z,1023.95
2017-04-18T06:10:00.605Z,1023.95
2017-04-18T06:11:22.441Z,1023.97
2017-04-18T06:12:43.952Z,1024.02
2017-04-18T06:14:05.778Z,1024.02
2017-04-18T06:15:27.286Z,1024.06
2017-04-18T06:16:49.421Z,1024.05
2017-04-18T06:18:11.909Z,1024.08
2017-04-18T06:19:34.731Z,1024.15
2017-04-18T06:20:56.918Z,1024.19
2017-04-18T06:22:18.769Z,1024.21
2017-04-18T06:23:40.918Z,1024.24
2017-04-18T06:25:03.332Z,1024.32
2017-04-18T06:26:25.517Z,1024.27
2017-04-18T06:27:46.777Z,1024.3
2017-04-18T06:29:08.620Z,1024.25
2017-04-18T06:30:31.167Z,1024.26
2017-04-18T06:31:52.695Z,1024.3
2017-04-18T06:33:14.735Z,1024.37
2017-04-18T06:34:37.196Z,1024.4
2017-04-18T06:35:59.141Z,1024.46
2017-04-18T06:37:20.962Z,1024.44
2017-04-18T06:38:42.559Z,1024.43
2017-04-18T06:40:04.721Z,1024.51
2017-04-18T06:41:27.107Z,1024.6
2017-04-18T06:42:49.549Z,1024.53
2017-04-18T06:44:11.700Z,1024.55
2017-04-18T06:45:33.859Z,1024.61
2017-04-18T06:46:56.359Z,1024.61
2017-04-18T06:48:18.183Z,1024.68
2017-04-18T06:49:40.022Z,1024.72
2017-04-18T06:51:02.199Z,1024.72
2017-04-18T06:52:24.598Z,1024.77
2017-04-18T06:53:46.425Z,1024.81
2017-04-18T06:55:08.583Z,1024.81
2017-04-18T06:56:31.167Z,1024.89
2017-04-18T06:57:53.581Z,1024.94
2017-04-18T06:59:14.773Z,1024.96
2017-04-18T07:00:36.297Z,1024.95
2017-04-18T07:01:58.737Z,1025.05
2017-04-18T07:03:20.207Z,1025.09
2017-04-18T07:04:41.865Z,1025
2017-04-18T07:06:03.393Z,1025.11
2017-04-18T07:07:24.898Z,1025.11
2017-04-18T07:08:46.663Z,1025.14
2017-04-18T07:10:08.827Z,1025.15
2017-04-18T07:11:31.077Z,1025.2
2017-04-18T07:12:52.306Z,1025.18
2017-04-18T07:14:14.427Z,1025.22
2017-04-18T07:15:36.282Z,1025.29
2017-04-18T07:16:58.460Z,1025.35
2017-04-18T07:18:20.419Z,1025.34
2017-04-18T07:19:42.938Z,1025.42
2017-04-18T07:21:04.559Z,1025.4
2017-04-18T07:22:27.361Z,1025.47
2017-04-18T07:23:49.207Z,1025.51
2017-04-18T07:25:11.971Z,1025.54
2017-04-18T07:26:33.897Z,1025.5
2017-04-18T07:27:55.758Z,1025.58
2017-04-18T07:29:17.578Z,1025.59
2017-04-18T07:30:40.017Z,1025.56
2017-04-18T07:32:01.850Z,1025.65
2017-04-18T07:33:23.356Z,1025.64
2017-04-18T07:34:45.187Z,1025.64
2017-04-18T07:36:07.266Z,1025.66
2017-04-18T07:37:29.739Z,1025.64
2017-04-18T07:38:51.564Z,1025.67
2017-04-18T07:40:13.444Z,1025.71
2017-04-18T07:41:36.289Z,1025.8
2017-04-18T07:42:58.748Z,1025.83
2017-04-18T07:44:21.229Z,1025.93
2017-04-18T07:45:42.757Z,1025.89
2017-04-18T07:47:04.939Z,1025.99
2017-04-18T07:48:26.917Z,1025.94
2017-04-18T07:49:49.089Z,1025.98
2017-04-18T07:51:10.928Z,1026.03
2017-04-18T07:52:32.698Z,1026.03
2017-04-18T07:53:54.680Z,1026.07
2017-04-18T07:55:16.348Z,1026.13
2017-04-18T07:56:38.944Z,1026.2
2017-04-18T07:58:01.194Z,1026.16
2017-04-18T07:59:22.719Z,1026.23
2017-04-18T08:00:44.422Z,1026.14
2017-04-18T08:02:06.260Z,1026.2
2017-04-18T08:03:28.355Z,1026.19
2017-04-18T08:04:50.498Z,1026.23
2017-04-18T08:06:12.002Z,1026.26
2017-04-18T08:07:33.864Z,1026.34
2017-04-18T08:08:55.946Z,1026.49
2017-04-18T08:10:17.455Z,1026.46
2017-04-18T08:11:39.997Z,1026.4
2017-04-18T08:13:02.158Z,1026.42
2017-04-18T08:14:24.291Z,1026.54
2017-04-18T08:15:46.780Z,1026.5
2017-04-18T08:17:08.712Z,1026.69
2017-04-18T08:18:31.203Z,1026.54
2017-04-18T08:19:53.736Z,1026.46
2017-04-18T08:21:15.908Z,1026.52
2017-04-18T08:22:37.750Z,1026.57
2017-04-18T08:23:59.892Z,1026.65
2017-04-18T08:25:22.029Z,1026.73
2017-04-18T08:26:43.857Z,1026.8
2017-04-18T08:28:06.358Z,1026.81
2017-04-18T08:29:28.209Z,1026.77
2017-04-18T08:30:49.673Z,1026.81
2017-04-18T08:32:11.210Z,1026.89
2017-04-18T08:33:33.508Z,1026.85
2017-04-18T08:34:55.342Z,1026.88
2017-04-18T08:36:17.510Z,1026.9
2017-04-18T08:37:39.347Z,1026.92
2017-04-18T08:39:01.688Z,1026.89
2017-04-18T08:40:23.842Z,1026.93
2017-04-18T08:41:44.981Z,1027.09
2017-04-18T08:43:07.138Z,1027.09
2017-04-18T08:44:29.000Z,1027.16
2017-04-18T08:45:50.569Z,1027.17
2017-04-18T08:47:13.035Z,1027.22
2017-04-18T08:48:34.678Z,1027.25
2017-04-18T08:49:56.834Z,1027.19
2017-04-18T08:51:19.045Z,1027.18
2017-04-18T08:52:41.487Z,1027.19
2017-04-18T08:54:03.317Z,1027.19
2017-04-18T08:55:25.631Z,1027.22
2017-04-18T08:56:48.149Z,1027.21
2017-04-18T08:58:10.241Z,1027.21
2017-04-18T08:59:32.598Z,1027.21
2017-04-18T09:00:54.247Z,1027.2
2017-04-18T09:02:16.408Z,1027.32
2017-04-18T09:03:38.500Z,1027.35
2017-04-18T09:05:00.349Z,1027.42
2017-04-18T09:06:22.589Z,1027.42
2017-04-18T09:07:44.097Z,1027.45
2017-04-18T09:09:06.241Z,1027.5
2017-04-18T09:10:28.418Z,1027.5
2017-04-18T09:11:50.663Z,1027.54
2017-04-18T09:13:12.528Z,1027.7
2017-04-18T09:14:34.708Z,1027.61
2017-04-18T09:15:57.271Z,1027.62
2017-04-18T09:17:19.128Z,1027.61
2017-04-18T09:18:41.588Z,1027.7
2017-04-18T09:20:03.478Z,1027.69
2017-04-18T09:21:25.315Z,1027.73
2017-04-18T09:22:47.466Z,1027.75
2017-04-18T09:24:08.994Z,1027.79
2017-04-18T09:25:31.479Z,1027.75
2017-04-18T09:26:53.647Z,1027.74
2017-04-18T09:28:15.437Z,1027.75
2017-04-18T09:29:36.971Z,1027.81
2017-04-18T09:30:59.645Z,1027.66
2017-04-18T09:32:21.814Z,1027.74
2017-04-18T09:33:43.649Z,1027.73
2017-04-18T09:35:05.155Z,1027.79
2017-04-18T09:36:27.250Z,1027.84
2017-04-18T09:37:49.483Z,1027.88
2017-04-18T09:39:12.052Z,1027.9
2017-04-18T09:40:34.239Z,1027.79
2017-04-18T09:41:56.886Z,1027.89
2017-04-18T09:43:19.282Z,1027.78
2017-04-18T09:44:40.816Z,1027.95
2017-04-18T09:46:02.059Z,1028.02
2017-04-18T09:47:24.582Z,1028.02
2017-04-18T09:48:46.438Z,1028.02
2017-04-18T09:50:07.989Z,1028.03
2017-04-18T09:51:30.176Z,1028.09
2017-04-18T09:52:52.218Z,1028.18
2017-04-18T09:54:14.174Z,1028.26
2017-04-18T09:55:36.102Z,1028.18
2017-04-18T09:56:58.590Z,1028.12
2017-04-18T09:58:21.479Z,1028.12
2017-04-18T09:59:43.655Z,1028.14
2017-04-18T10:01:06.368Z,1028.22
2017-04-18T10:02:28.238Z,1028.27
2017-04-18T10:03:50.388Z,1028.27
2017-04-18T10:05:12.587Z,1028.35
2017-04-18T10:06:34.776Z,1028.36
2017-04-18T10:07:57.038Z,1028.32
2017-04-18T10:09:19.511Z,1028.23
2017-04-18T10:10:41.588Z,1028.26
2017-04-18T10:12:03.761Z,1028.34
2017-04-18T10:13:25.687Z,1028.38
2017-04-18T10:14:47.888Z,1028.4
2017-04-18T10:16:10.188Z,1028.4
2017-04-18T10:17:32.040Z,1028.43
2017-04-18T10:18:54.208Z,1028.47
2017-04-18T10:20:16.019Z,1028.5
2017-04-18T10:21:37.860Z,1028.48
2017-04-18T10:23:00.041Z,1028.5
2017-04-18T10:24:21.879Z,1028.53
2017-04-18T10:25:44.610Z,1028.55
2017-04-18T10:27:06.151Z,1028.51
2017-04-18T10:28:27.696Z,1028.62
2017-04-18T10:29:49.536Z,1028.61
2017-04-18T10:31:11.618Z,1028.59
2017-04-18T10:32:33.482Z,1028.58
2017-04-18T10:33:55.469Z,1028.62
2017-04-18T10:35:17.618Z,1028.62
2017-04-18T10:36:39.705Z,1028.61
2017-04-18T10:38:00.898Z,1028.64
2017-04-18T10:39:23.610Z,1028.68
2017-04-18T10:40:45.759Z,1028.6
2017-04-18T10:42:08.165Z,1028.7
2017-04-18T10:43:29.698Z,1028.73
2017-04-18T10:44:52.176Z,1028.72
2017-04-18T10:46:14.032Z,1028.75
2017-04-18T10:47:36.458Z,1028.59
2017-04-18T10:48:58.408Z,1028.59
2017-04-18T10:50:20.280Z,1028.65
2017-04-18T10:51:42.442Z,1028.76
2017-04-18T10:53:04.049Z,1028.84
2017-04-18T10:54:26.422Z,1028.87
2017-04-18T10:55:48.916Z,1028.79
2017-04-18T10:57:10.418Z,1028.73
2017-04-18T10:58:32.241Z,1028.76
2017-04-18T10:59:54.478Z,1028.76
2017-04-18T11:01:16.116Z,1028.76
2017-04-18T11:02:37.957Z,1028.71
2017-04-18T11:03:59.736Z,1028.76
2017-04-18T11:05:21.559Z,1028.76
2017-04-18T11:06:44.035Z,1028.72
2017-04-18T11:08:05.538Z,1028.77
2017-04-18T11:09:27.609Z,1028.81
2017-04-18T11:10:48.917Z,1028.83
2017-04-18T11:12:10.131Z,1028.91
2017-04-18T11:13:32.312Z,1029
2017-04-18T11:14:54.086Z,1028.8
2017-04-18T11:16:16.249Z,1028.94
2017-04-18T11:17:38.088Z,1028.98
2017-04-18T11:18:59.608Z,1028.96
2017-04-18T11:20:22.017Z,1029.03
2017-04-18T11:21:44.565Z,1029.02
2017-04-18T11:23:06.719Z,1029.1
2017-04-18T11:24:28.880Z,1029.07
2017-04-18T11:25:51.324Z,1029.13
2017-04-18T11:27:13.563Z,1029.27
2017-04-18T11:28:35.514Z,1029.17
2017-04-18T11:29:57.088Z,1029.27
2017-04-18T11:31:19.500Z,1029.23
2017-04-18T11:32:41.350Z,1029.39
2017-04-18T11:34:02.918Z,1029.33
2017-04-18T11:35:25.128Z,1029.35
2017-04-18T11:36:47.213Z,1029.3
2017-04-18T11:38:09.402Z,1029.4
2017-04-18T11:39:31.559Z,1029.4
2017-04-18T11:40:53.845Z,1029.41
2017-04-18T11:42:16.306Z,1029.39
2017-04-18T11:43:38.456Z,1029.41
2017-04-18T11:45:00.686Z,1029.5
2017-04-18T11:46:22.525Z,1029.56
2017-04-18T11:47:44.660Z,1029.51
2017-04-18T11:49:06.518Z,1029.5
2017-04-18T11:50:28.148Z,1029.5
2017-04-18T11:51:50.650Z,1029.6
2017-04-18T11:53:12.781Z,1029.62
2017-04-18T11:54:35.229Z,1029.64
2017-04-18T11:55:57.478Z,1029.67
2017-04-18T11:57:19.698Z,1029.66
2017-04-18T11:58:42.536Z,1029.6
2017-04-18T12:00:04.813Z,1029.74
2017-04-18T12:01:26.460Z,1029.68
2017-04-18T12:02:48.998Z,1029.69
2017-04-18T12:04:11.189Z,1029.66
2017-04-18T12:05:33.741Z,1029.69
2017-04-18T12:06:55.678Z,1029.73
2017-04-18T12:08:16.881Z,1029.84
2017-04-18T12:09:38.838Z,1029.74
2017-04-18T12:11:00.708Z,1029.74
2017-04-18T12:12:23.200Z,1029.69
2017-04-18T12:13:45.409Z,1029.71
2017-04-18T12:15:08.198Z,1029.71
2017-04-18T12:16:30.440Z,1029.79
2017-04-18T12:17:52.695Z,1029.88
2017-04-18T12:19:14.925Z,1029.82
2017-04-18T12:20:37.450Z,1029.86
2017-04-18T12:22:00.044Z,1029.93
2017-04-18T12:23:21.910Z,1029.9
2017-04-18T12:24:43.772Z,1030.04
2017-04-18T12:26:06.186Z,1029.84
2017-04-18T12:27:27.709Z,1029.85
2017-04-18T12:28:50.189Z,1029.89
2017-04-18T12:30:12.517Z,1029.84
2017-04-18T12:31:34.637Z,1029.87
2017-04-18T12:32:57.077Z,1029.88
2017-04-18T12:34:19.247Z,1029.94
2017-04-18T12:35:41.200Z,1029.91
2017-04-18T12:37:03.357Z,1029.93
2017-04-18T12:38:25.516Z,1029.96
2017-04-18T12:39:47.737Z,1030.07
2017-04-18T12:41:09.626Z,1029.97
2017-04-18T12:42:32.048Z,1029.99
2017-04-18T12:43:53.943Z,1029.96
2017-04-18T12:45:15.461Z,1029.99
2017-04-18T12:46:37.945Z,1029.98
2017-04-18T12:48:00.467Z,1029.96
2017-04-18T12:49:22.957Z,1029.95
2017-04-18T12:50:45.584Z,1029.99
2017-04-18T12:52:07.100Z,1030.07
2017-04-18T12:53:28.983Z,1030.02
2017-04-18T12:54:50.868Z,1030.04
2017-04-18T12:56:12.758Z,1030.09
2017-04-18T12:57:34.276Z,1030.04
2017-04-18T12:58:56.059Z,1030.02
2017-04-18T13:00:18.555Z,1029.99
2017-04-18T13:01:40.097Z,1030
2017-04-18T13:03:02.561Z,1029.94
2017-04-18T13:04:25.270Z,1029.94
2017-04-18T13:05:47.455Z,1030.02
2017-04-18T13:07:09.330Z,1030.04
2017-04-18T13:08:31.190Z,1030.04
2017-04-18T13:09:53.637Z,1030.06
2017-04-18T13:11:15.798Z,1030.03
2017-04-18T13:12:38.053Z,1030
2017-04-18T13:14:00.338Z,1030.02
2017-04-18T13:15:23.127Z,1030.02
2017-04-18T13:16:45.394Z,1030.19
2017-04-18T13:18:07.288Z,1030.18
2017-04-18T13:19:29.495Z,1030.16
2017-04-18T13:20:51.908Z,1030.16
2017-04-18T13:22:14.157Z,1030.22
2017-04-18T13:23:35.781Z,1030.33
2017-04-18T13:24:57.677Z,1030.31
2017-04-18T13:26:20.280Z,1030.26
2017-04-18T13:27:42.844Z,1030.27
2017-04-18T13:29:04.679Z,1030.34
2017-04-18T13:30:27.137Z,1030.31
2017-04-18T13:31:49.325Z,1030.33
2017-04-18T13:33:11.177Z,1030.38
2017-04-18T13:34:32.706Z,1030.28
2017-04-18T13:35:55.187Z,1030.31
2017-04-18T13:37:17.270Z,1030.36
2017-04-18T13:38:38.797Z,1030.46
2017-04-18T13:40:00.947Z,1030.36
2017-04-18T13:41:22.839Z,1030.51
2017-04-18T13:42:45.556Z,1030.44
2017-04-18T13:44:07.721Z,1030.4
2017-04-18T13:45:29.580Z,1030.45
2017-04-18T13:46:52.068Z,1030.43
2017-04-18T13:48:14.482Z,1030.43
2017-04-18T13:49:36.935Z,1030.41
2017-04-18T13:50:58.828Z,1030.43
2017-04-18T13:52:20.975Z,1030.37
2017-04-18T13:53:43.146Z,1030.45
2017-04-18T13:55:05.018Z,1030.44
2017-04-18T13:56:26.627Z,1030.35
2017-04-18T13:57:48.877Z,1030.5
2017-04-18T13:59:11.689Z,1030.47
2017-04-18T14:00:33.842Z,1030.61
2017-04-18T14:01:55.707Z,1030.49
2017-04-18T14:03:17.239Z,1030.52
2017-04-18T14:04:39.438Z,1030.54
2017-04-18T14:06:01.727Z,1030.5
2017-04-18T14:07:23.546Z,1030.56
2017-04-18T14:08:46.052Z,1030.57
2017-04-18T14:10:08.252Z,1030.5
2017-04-18T14:11:30.387Z,1030.5
2017-04-18T14:12:52.502Z,1030.3
2017-04-18T14:14:15.020Z,1030.46
2017-04-18T14:15:37.868Z,1030.44
2017-04-18T14:16:59.717Z,1030.48
2017-04-18T14:18:21.983Z,1030.64
2017-04-18T14:19:43.818Z,1030.5
2017-04-18T14:21:06.049Z,1030.51
2017-04-18T14:22:28.207Z,1030.59
2017-04-18T14:23:50.108Z,1030.55
2017-04-18T14:25:12.592Z,1030.58
2017-04-18T14:26:35.004Z,1030.55
2017-04-18T14:27:56.537Z,1030.49
2017-04-18T14:29:18.362Z,1030.45
2017-04-18T14:30:40.165Z,1030.47
2017-04-18T14:32:02.591Z,1030.43
2017-04-18T14:33:25.097Z,1030.4
2017-04-18T14:34:46.618Z,1030.42
2017-04-18T14:36:08.458Z,1030.42
2017-04-18T14:37:30.547Z,1030.48
2017-04-18T14:38:52.383Z,1030.57
2017-04-18T14:40:14.248Z,1030.58
2017-04-18T14:41:35.478Z,1030.55
2017-04-18T14:42:58.311Z,1030.72
2017-04-18T14:44:20.169Z,1030.63
2017-04-18T14:45:42.678Z,1030.66
2017-04-18T14:47:04.517Z,1030.63
2017-04-18T14:48:27.528Z,1030.54
2017-04-18T14:49:49.576Z,1030.52
2017-04-18T14:51:11.756Z,1030.51
2017-04-18T14:52:34.259Z,1030.49
2017-04-18T14:53:56.921Z,1030.6
2017-04-18T14:55:18.754Z,1030.62
2017-04-18T14:56:41.389Z,1030.69
2017-04-18T14:58:03.689Z,1030.62
2017-04-18T14:59:26.212Z,1030.64
2017-04-18T15:00:48.786Z,1030.66
2017-04-18T15:02:10.647Z,1030.61
2017-04-18T15:03:32.502Z,1030.58
2017-04-18T15:04:54.916Z,1030.55
2017-04-18T15:06:16.865Z,1030.59
2017-04-18T15:07:38.068Z,1030.58
2017-04-18T15:08:59.917Z,1030.64
2017-04-18T15:10:22.397Z,1030.73
2017-04-18T15:11:44.216Z,1030.6
2017-04-18T15:13:07.018Z,1030.64
2017-04-18T15:14:29.184Z,1030.62
2017-04-18T15:15:51.288Z,1030.66
2017-04-18T15:17:13.216Z,1030.67
2017-04-18T15:18:35.487Z,1030.73
2017-04-18T15:19:57.502Z,1030.69
2017-04-18T15:21:19.919Z,1030.76
2017-04-18T15:22:42.449Z,1030.8
2017-04-18T15:24:04.614Z,1030.8
2017-04-18T15:25:26.459Z,1030.79
2017-04-18T15:26:49.403Z,1030.84
2017-04-18T15:28:11.904Z,1030.79
2017-04-18T15:29:34.068Z,1030.86
2017-04-18T15:30:56.597Z,1030.91
2017-04-18T15:32:19.067Z,1030.87
2017-04-18T15:33:41.817Z,1031.01
2017-04-18T15:35:04.011Z,1030.91
2017-04-18T15:36:26.188Z,1030.87
2017-04-18T15:37:48.977Z,1030.86
2017-04-18T15:39:11.433Z,1030.87
2017-04-18T15:40:33.312Z,1030.84
2017-04-18T15:41:55.673Z,1030.85
2017-04-18T15:43:18.227Z,1030.9
2017-04-18T15:44:40.418Z,1030.94
2017-04-18T15:46:02.948Z,1030.83
2017-04-18T15:47:25.416Z,1030.84
2017-04-18T15:48:50.123Z,1030.75
2017-04-18T15:50:12.970Z,1030.81
2017-04-18T15:51:35.482Z,1031.05
2017-04-18T15:52:58.011Z,1031
2017-04-18T15:54:20.758Z,1030.91
2017-04-18T15:55:42.619Z,1030.95
2017-04-18T15:57:05.126Z,1030.92
2017-04-18T15:58:27.626Z,1030.97
2017-04-18T15:59:49.757Z,1030.98
2017-04-18T16:01:11.598Z,1030.98
2017-04-18T16:02:34.185Z,1031.12
2017-04-18T16:03:56.497Z,1031.06
2017-04-18T16:05:19.162Z,1031.13
2017-04-18T16:06:41.637Z,1031.06
2017-04-18T16:08:03.858Z,1031.05
2017-04-18T16:09:26.788Z,1031.03
2017-04-18T16:10:48.874Z,1030.94
2017-04-18T16:12:12.649Z,1031.05
2017-04-18T16:13:37.237Z,1031.06
2017-04-18T16:14:59.459Z,1031.07
2017-04-18T16:16:22.266Z,1031.11
2017-04-18T16:17:44.117Z,1031.11
2017-04-18T16:19:06.338Z,1031.13
2017-04-18T16:20:28.819Z,1031.2
2017-04-18T16:21:51.670Z,1031.17
2017-04-18T16:23:13.948Z,1031.14
2017-04-18T16:24:36.444Z,1031.18
2017-04-18T16:25:58.627Z,1031.26
2017-04-18T16:27:21.497Z,1031.23
2017-04-18T16:28:43.359Z,1031.2
2017-04-18T16:30:05.520Z,1031.25
2017-04-18T16:31:27.375Z,1031.2
2017-04-18T16:32:50.119Z,1031.25
2017-04-18T16:34:12.617Z,1031.18
2017-04-18T16:35:34.785Z,1031.25
2017-04-18T16:36:56.987Z,1031.23